Time;durP1;ratioP1;P1;durP2;ratioP2;P2;SDS_P1;SDS_P2;PMS_P1;PMS_P2;Temp;Humidity;BMP_temperature;BMP_pressure;BME280_temperature;BME280_humidity;BME280_pressure;Samples;Min_cycle;Max_cycle;Signal;HPM_P1;HPM_P2
2022/08/06 00:01:06;;;;;;;;;;;;;;;-140.72;100.00;52437.53;4877279;29;20018;-66
2022/08/06 00:03:32;;;;;;;;;;;;;;;-140.72;100.00;52459.84;4890554;29;20372;-66
2022/08/06 00:05:57;;;;;;;;;;;;;;;-140.72;100.00;52465.94;4890382;29;20391;-66
2022/08/06 00:08:22;;;;;;;;;;;;;;;-140.72;100.00;52480.16;4887474;29;20007;-65
2022/08/06 00:10:49;;;;;;;;;;;;;;;-140.72;100.00;52463.91;4887439;29;20136;-65
2022/08/06 00:13:15;;;;;;;;;;;;;;;-140.72;100.00;52459.84;4890059;29;19923;-66
2022/08/06 00:15:40;;;;;;;;;;;;;;;-140.72;100.00;52474.06;4877449;29;20434;-66
2022/08/06 00:18:06;;;;;;;;;;;;;;;-140.72;100.00;52476.09;4888046;29;19924;-66
2022/08/06 00:20:31;;;;;;;;;;;;;;;-140.72;100.00;52467.97;4888643;29;19919;-65
2022/08/06 00:22:56;;;;;;;;;;;;;;;-140.72;100.00;52496.38;4888531;29;19970;-65
2022/08/06 00:25:22;;;;;;;;;;;;;;;-140.72;100.00;52488.25;4885959;29;19982;-66
2022/08/06 00:27:47;;;;;;;;;;;;;;;-140.72;100.00;52484.19;4893302;29;19933;-65
2022/08/06 00:30:12;;;;;;;;;;;;;;;-140.72;100.00;52459.84;4893119;29;19920;-65
2022/08/06 00:32:37;;;;;;;;;;;;;;;-140.72;100.00;52451.72;4884677;29;19920;-65
2022/08/06 00:35:04;;;;;;;;;;;;;;;-140.72;100.00;52453.75;4892117;29;19924;-66
2022/08/06 00:37:31;;;;;;;;;;;;;;;-140.72;100.00;52449.72;4888261;29;20280;-67
2022/08/06 00:39:57;;;;;;;;;;;;;;;-140.72;100.00;52435.50;4886880;29;19919;-64
2022/08/06 00:42:22;;;;;;;;;;;;;;;-140.72;100.00;52467.97;4892936;29;19937;-66
2022/08/06 00:44:47;;;;;;;;;;;;;;;-140.72;100.00;52484.19;4890484;29;20299;-66
2022/08/06 00:47:12;;;;;;;;;;;;;;;-140.72;100.00;52461.88;4874970;29;19947;-65
2022/08/06 00:49:38;;;;;;;;;;;;;;;-140.72;100.00;52472.03;4890211;29;20353;-65
2022/08/06 00:52:03;;;;;;;;;;;;;;;-140.72;100.00;52498.41;4874571;29;20347;-66
2022/08/06 00:54:28;;;;;;;;;;;;;;;-140.72;100.00;52514.63;4889285;29;19931;-66
2022/08/06 00:56:53;;;;;;;;;;;;;;;-140.72;100.00;52419.28;4892663;29;19936;-66
2022/08/06 00:59:19;;;;;;;;;;;;;;;-140.72;100.00;52490.28;4886511;29;19928;-66
2022/08/06 01:01:44;;;;;;;;;;;;;;;-140.72;100.00;52465.94;4867244;29;19924;-66
2022/08/06 01:04:09;;;;;;;;;;;;;;;-140.72;100.00;52455.78;4894767;29;20422;-66
2022/08/06 01:06:34;;;;;;;;;;;;;;;-140.72;100.00;52431.44;4872016;29;20304;-66
2022/08/06 01:08:59;;;;;;;;;;;;;;;-140.72;100.00;52478.13;4889413;29;19924;-66
2022/08/06 01:11:25;;;;;;;;;;;;;;;-140.72;100.00;52496.38;4887715;29;20079;-65
2022/08/06 01:13:50;;;;;;;;;;;;;;;-140.72;100.00;52463.91;4888898;29;19920;-66
2022/08/06 01:16:21;;;;;;;;;;;;;;;-140.72;100.00;52451.72;4895631;29;19971;-65
2022/08/06 01:18:52;;;;;;;;;;;;;;;-140.72;100.00;52467.97;4875439;29;20404;-65
2022/08/06 01:21:22;;;;;;;;;;;;;;;-140.72;100.00;52480.16;4888403;29;20014;-65
2022/08/06 01:24:07;;;;;;;;;;;;;;;-140.72;100.00;52480.16;4891680;29;19920;-66
2022/08/06 01:26:32;;;;;;;;;;;;;;;-140.72;100.00;52502.47;4891580;29;19926;-65
2022/08/06 01:29:01;;;;;;;;;;;;;;;-140.72;100.00;52455.78;4872913;29;19919;-66
2022/08/06 01:31:28;;;;;;;;;;;;;;;-140.72;100.00;52500.44;4868887;29;20313;-66
2022/08/06 01:34:00;;;;;;;;;;;;;;;-140.72;100.00;52465.94;4883563;29;20390;-65
2022/08/06 01:36:44;;;;;;;;;;;;;;;-140.72;100.00;52447.69;4884588;29;19932;-65
2022/08/06 01:39:11;;;;;;;;;;;;;;;-140.72;100.00;52472.03;4886644;29;19927;-65
2022/08/06 01:41:40;;;;;;;;;;;;;;;-140.72;100.00;52465.94;4874725;29;19959;-65
2022/08/06 01:44:06;;;;;;;;;;;;;;;-140.72;100.00;52455.78;4886967;29;19959;-65
2022/08/06 01:46:34;;;;;;;;;;;;;;;-140.72;100.00;52463.91;4894909;29;20394;-65
2022/08/06 01:49:00;;;;;;;;;;;;;;;-140.72;100.00;52451.72;4886785;29;19920;-65
2022/08/06 01:51:26;;;;;;;;;;;;;;;-140.72;100.00;52504.50;4891854;29;19923;-64
2022/08/06 01:53:52;;;;;;;;;;;;;;;-140.72;100.00;52480.16;4872502;29;20444;-66
2022/08/06 01:56:18;;;;;;;;;;;;;;;-140.72;100.00;52498.41;4888023;29;20304;-64
2022/08/06 01:58:45;;;;;;;;;;;;;;;-140.72;100.00;52496.38;4865050;29;19920;-65
2022/08/06 02:01:12;;;;;;;;;;;;;;;-140.72;100.00;52490.28;4886075;29;19920;-66
2022/08/06 02:03:42;;;;;;;;;;;;;;;-140.72;100.00;52500.44;4883021;29;19920;-66
2022/08/06 02:06:08;;;;;;;;;;;;;;;-140.72;100.00;52476.09;4869637;29;19931;-67
2022/08/06 02:08:36;;;;;;;;;;;;;;;-140.72;100.00;52510.59;4896880;29;19919;-66
2022/08/06 02:11:03;;;;;;;;;;;;;;;-140.72;100.00;52490.28;4895453;29;20026;-66
2022/08/06 02:13:30;;;;;;;;;;;;;;;-140.72;100.00;52467.97;4887161;29;19923;-66
2022/08/06 02:15:56;;;;;;;;;;;;;;;-140.72;100.00;52488.25;4905793;29;20327;-65
2022/08/06 02:18:22;;;;;;;;;;;;;;;-140.72;100.00;52488.25;4911254;29;19923;-65
2022/08/06 02:20:49;;;;;;;;;;;;;;;-140.72;100.00;52496.38;4901033;29;19955;-65
2022/08/06 02:23:20;;;;;;;;;;;;;;;-140.72;100.00;52504.50;4900903;29;20359;-65
2022/08/06 02:25:46;;;;;;;;;;;;;;;-140.72;100.00;52496.38;4898817;29;19924;-64
2022/08/06 02:28:12;;;;;;;;;;;;;;;-140.72;100.00;52510.59;4899352;29;19919;-66
2022/08/06 02:30:40;;;;;;;;;;;;;;;-140.72;100.00;52506.53;4889481;29;19919;-66
2022/08/06 02:33:06;;;;;;;;;;;;;;;-140.72;100.00;52467.97;4888858;29;20415;-66
2022/08/06 02:35:33;;;;;;;;;;;;;;;-140.72;100.00;52494.34;4894301;29;19984;-66
2022/08/06 02:38:03;;;;;;;;;;;;;;;-140.72;100.00;52492.31;4882425;29;19920;-66
2022/08/06 02:40:35;;;;;;;;;;;;;;;-140.72;100.00;52504.50;4894290;29;20002;-65
2022/08/06 02:43:04;;;;;;;;;;;;;;;-140.72;100.00;52488.25;4895047;29;19919;-66
2022/08/06 02:45:38;;;;;;;;;;;;;;;-140.72;100.00;52512.59;4900649;29;19938;-65
2022/08/06 02:48:03;;;;;;;;;;;;;;;-140.72;100.00;52480.16;4889924;29;19920;-65
2022/08/06 02:50:31;;;;;;;;;;;;;;;-140.72;100.00;52502.47;4910926;29;19926;-65
2022/08/06 02:52:59;;;;;;;;;;;;;;;-140.72;100.00;52541.03;4900346;29;19919;-66
2022/08/06 02:55:31;;;;;;;;;;;;;;;-140.72;100.00;52512.59;4895177;29;20344;-65
2022/08/06 02:57:59;;;;;;;;;;;;;;;-140.72;100.00;52502.47;4894464;29;19919;-65
2022/08/06 03:00:25;;;;;;;;;;;;;;;-140.72;100.00;52480.16;4900580;29;19920;-65
2022/08/06 03:02:53;;;;;;;;;;;;;;;-140.72;100.00;52504.50;4912276;29;19925;-65
2022/08/06 03:05:19;;;;;;;;;;;;;;;-140.72;100.00;52494.34;4906972;29;19919;-65
2022/08/06 03:07:46;;;;;;;;;;;;;;;-140.72;100.00;52514.63;4904675;29;19953;-64
2022/08/06 03:10:12;;;;;;;;;;;;;;;-140.72;100.00;52524.78;4883132;29;20014;-65
2022/08/06 03:12:38;;;;;;;;;;;;;;;-140.72;100.00;52536.97;4900102;29;19961;-65
2022/08/06 03:15:04;;;;;;;;;;;;;;;-140.72;100.00;52534.94;4887830;29;19934;-65
2022/08/06 03:17:31;;;;;;;;;;;;;;;-140.72;100.00;52504.50;4894038;29;20257;-65
2022/08/06 03:19:58;;;;;;;;;;;;;;;-140.72;100.00;52524.78;4907059;29;20339;-66
2022/08/06 03:22:25;;;;;;;;;;;;;;;-140.72;100.00;52516.66;4888243;29;20129;-67
2022/08/06 03:24:50;;;;;;;;;;;;;;;-140.72;100.00;52508.56;4899342;29;20313;-65
2022/08/06 03:27:17;;;;;;;;;;;;;;;-140.72;100.00;52506.53;4906315;29;20047;-65
2022/08/06 03:29:43;;;;;;;;;;;;;;;-140.72;100.00;52506.53;4904654;29;20402;-65
2022/08/06 03:32:08;;;;;;;;;;;;;;;-140.72;100.00;52498.41;4899327;29;19919;-66
2022/08/06 03:34:34;;;;;;;;;;;;;;;-140.72;100.00;52506.53;4910343;29;19923;-66
2022/08/06 03:37:00;;;;;;;;;;;;;;;-140.72;100.00;52514.63;4892067;29;19955;-66
2022/08/06 03:39:27;;;;;;;;;;;;;;;-140.72;100.00;52496.38;4895413;29;19939;-66
2022/08/06 03:41:52;;;;;;;;;;;;;;;-140.72;100.00;52508.56;4893193;29;19926;-66
2022/08/06 03:44:18;;;;;;;;;;;;;;;-140.72;100.00;52563.34;4879780;29;19920;-66
2022/08/06 03:46:46;;;;;;;;;;;;;;;-140.72;100.00;52528.84;4899273;29;20033;-67
2022/08/06 03:49:19;;;;;;;;;;;;;;;-140.72;100.00;52465.94;4887275;29;20322;-65
2022/08/06 03:51:47;;;;;;;;;;;;;;;-140.72;100.00;52534.94;4892374;29;19946;-65
2022/08/06 03:54:13;;;;;;;;;;;;;;;-140.72;100.00;52522.75;4882405;29;19949;-66
2022/08/06 03:56:40;;;;;;;;;;;;;;;-140.72;100.00;52528.84;4875241;29;19920;-65
2022/08/06 03:59:06;;;;;;;;;;;;;;;-140.72;100.00;52528.84;4895160;29;19931;-66
2022/08/06 04:01:34;;;;;;;;;;;;;;;-140.72;100.00;52494.34;4891933;29;19920;-66
2022/08/06 04:04:00;;;;;;;;;;;;;;;-140.72;100.00;52514.63;4882840;29;19982;-65
2022/08/06 04:06:25;;;;;;;;;;;;;;;-140.72;100.00;52549.13;4897973;29;19924;-66
2022/08/06 04:08:52;;;;;;;;;;;;;;;-140.72;100.00;52500.44;4886548;29;20055;-65
2022/08/06 04:11:17;;;;;;;;;;;;;;;-140.72;100.00;52518.69;4891266;29;20493;-65
2022/08/06 04:13:44;;;;;;;;;;;;;;;-140.72;100.00;52504.50;4881595;29;20006;-66
2022/08/06 04:16:11;;;;;;;;;;;;;;;-140.72;100.00;52518.69;4889884;29;19931;-66
2022/08/06 04:18:38;;;;;;;;;;;;;;;-140.72;100.00;52512.59;4884288;29;20290;-65
2022/08/06 04:21:09;;;;;;;;;;;;;;;-140.72;100.00;52500.44;4891027;29;19923;-66
2022/08/06 04:23:34;;;;;;;;;;;;;;;-140.72;100.00;52500.44;4883737;29;19920;-65
2022/08/06 04:26:01;;;;;;;;;;;;;;;-140.72;100.00;52500.44;4891234;29;20392;-65
2022/08/06 04:28:28;;;;;;;;;;;;;;;-140.72;100.00;52555.22;4896438;29;19973;-65
2022/08/06 04:30:54;;;;;;;;;;;;;;;-140.72;100.00;52506.53;4889818;29;19991;-65
2022/08/06 04:33:21;;;;;;;;;;;;;;;-140.72;100.00;52512.59;4892488;29;19919;-66
2022/08/06 04:35:47;;;;;;;;;;;;;;;-140.72;100.00;52504.50;4879934;29;20008;-67
2022/08/06 04:38:14;;;;;;;;;;;;;;;-140.72;100.00;52553.19;4883273;29;19963;-65
2022/08/06 04:40:40;;;;;;;;;;;;;;;-140.72;100.00;52526.81;4892149;29;20006;-64
2022/08/06 04:43:06;;;;;;;;;;;;;;;-140.72;100.00;52510.59;4906931;29;20012;-66
2022/08/06 04:45:32;;;;;;;;;;;;;;;-140.72;100.00;52463.91;4893179;29;19919;-66
2022/08/06 04:47:58;;;;;;;;;;;;;;;-140.72;100.00;52504.50;4898081;29;19926;-65
2022/08/06 04:50:24;;;;;;;;;;;;;;;-140.72;100.00;52508.56;4908485;29;20343;-68
2022/08/06 04:52:49;;;;;;;;;;;;;;;-140.72;100.00;52528.84;4900485;29;19919;-67
2022/08/06 04:55:16;;;;;;;;;;;;;;;-140.72;100.00;52504.50;4898110;29;20327;-65
2022/08/06 04:57:42;;;;;;;;;;;;;;;-140.72;100.00;52504.50;4889815;29;20085;-64
2022/08/06 05:00:07;;;;;;;;;;;;;;;-140.72;100.00;52506.53;4906724;29;20374;-65
2022/08/06 05:02:32;;;;;;;;;;;;;;;-140.72;100.00;52514.63;4909836;29;19919;-66
2022/08/06 05:04:58;;;;;;;;;;;;;;;-140.72;100.00;52522.75;4908305;29;19951;-66
2022/08/06 05:07:28;;;;;;;;;;;;;;;-140.72;100.00;52522.75;4906891;29;20276;-67
2022/08/06 05:09:55;;;;;;;;;;;;;;;-140.72;100.00;52512.59;4875904;29;19947;-65
2022/08/06 05:12:29;;;;;;;;;;;;;;;-140.72;100.00;52536.97;4916635;29;19923;-65
2022/08/06 05:14:57;;;;;;;;;;;;;;;-140.72;100.00;52490.28;4904199;29;19919;-66
2022/08/06 05:17:26;;;;;;;;;;;;;;;-140.72;100.00;52522.75;4881510;29;19920;-65
2022/08/06 05:19:55;;;;;;;;;;;;;;;-140.72;100.00;52512.59;4880170;29;19920;-67
2022/08/06 05:22:22;;;;;;;;;;;;;;;-140.72;100.00;52494.34;4897390;29;19976;-65
2022/08/06 05:24:47;;;;;;;;;;;;;;;-140.72;100.00;52494.34;4909570;29;19919;-66
2022/08/06 05:27:13;;;;;;;;;;;;;;;-140.72;100.00;52498.41;4897835;29;19919;-66
2022/08/06 05:29:40;;;;;;;;;;;;;;;-140.72;100.00;52480.16;4900052;29;19926;-72
2022/08/06 05:32:07;;;;;;;;;;;;;;;-140.72;100.00;52488.25;4908048;29;19926;-69
2022/08/06 05:34:32;;;;;;;;;;;;;;;-140.72;100.00;52472.03;4897155;29;19924;-67
2022/08/06 05:36:57;;;;;;;;;;;;;;;-140.72;100.00;52455.78;4899726;29;19930;-66
2022/08/06 05:39:22;;;;;;;;;;;;;;;-140.72;100.00;52490.28;4882542;29;19934;-65
2022/08/06 05:41:48;;;;;;;;;;;;;;;-140.72;100.00;52465.94;4883499;29;20360;-66
2022/08/06 05:44:13;;;;;;;;;;;;;;;-140.72;100.00;52504.50;4880348;29;19926;-69
2022/08/06 05:46:45;;;;;;;;;;;;;;;-140.72;100.00;52429.41;4911399;29;20338;-69
2022/08/06 05:49:15;;;;;;;;;;;;;;;-140.72;100.00;52463.91;4887113;29;19924;-68
2022/08/06 05:51:46;;;;;;;;;;;;;;;-140.72;100.00;52549.13;4901568;29;20045;-66
2022/08/06 05:54:34;;;;;;;;;;;;;;;-140.72;100.00;52472.03;4892182;29;19926;-66
2022/08/06 05:57:05;;;;;;;;;;;;;;;-140.72;100.00;52427.38;4858411;29;20507;-68
2022/08/06 05:59:33;;;;;;;;;;;;;;;-140.72;100.00;52451.72;4885698;29;19930;-65
2022/08/06 06:01:59;;;;;;;;;;;;;;;-140.72;100.00;52461.88;4889934;29;20090;-69
2022/08/06 06:04:25;;;;;;;;;;;;;;;-140.72;100.00;52451.72;4894924;29;19995;-68
2022/08/06 06:06:50;;;;;;;;;;;;;;;-140.72;100.00;52476.09;4881291;29;20344;-66
2022/08/06 06:09:16;;;;;;;;;;;;;;;-140.72;100.00;52411.16;4884658;29;20007;-68
2022/08/06 06:11:41;;;;;;;;;;;;;;;-140.72;100.00;52455.78;4889298;29;19920;-67
2022/08/06 06:14:23;;;;;;;;;;;;;;;-140.72;100.00;52492.31;4889338;29;19939;-67
2022/08/06 06:16:48;;;;;;;;;;;;;;;-140.72;100.00;52447.69;4885993;29;20222;-67
2022/08/06 06:19:20;;;;;;;;;;;;;;;-140.72;100.00;52447.69;4877482;29;20131;-68
2022/08/06 06:21:55;;;;;;;;;;;;;;;-140.72;100.00;52429.41;4897660;29;19931;-70
2022/08/06 06:24:31;;;;;;;;;;;;;;;-140.72;100.00;52413.19;4892692;29;19942;-66
2022/08/06 06:27:01;;;;;;;;;;;;;;;-140.72;100.00;52488.25;4889137;29;19920;-67
2022/08/06 06:29:47;;;;;;;;;;;;;;;-140.72;100.00;52417.25;4901093;29;19916;-66
2022/08/06 06:32:27;;;;;;;;;;;;;;;-140.72;100.00;52403.03;4892327;29;19920;-71
2022/08/06 06:35:06;;;;;;;;;;;;;;;-140.72;100.00;52411.16;4881786;29;19927;-68
2022/08/06 06:37:32;;;;;;;;;;;;;;;-140.72;100.00;52431.44;4885889;29;20307;-69
2022/08/06 06:39:57;;;;;;;;;;;;;;;-140.72;100.00;52398.97;4886649;29;19919;-67
2022/08/06 06:42:27;;;;;;;;;;;;;;;-140.72;100.00;52390.84;4865767;29;19919;-67
2022/08/06 06:45:00;;;;;;;;;;;;;;;-140.72;100.00;52447.69;4889884;29;19947;-69
2022/08/06 06:47:29;;;;;;;;;;;;;;;-140.72;100.00;52415.22;4884941;29;20325;-68
2022/08/06 06:49:57;;;;;;;;;;;;;;;-140.72;100.00;52407.09;4885841;29;19924;-69
2022/08/06 06:52:33;;;;;;;;;;;;;;;-140.72;100.00;52415.22;4882972;29;20324;-68
2022/08/06 06:55:04;;;;;;;;;;;;;;;-140.72;100.00;52403.03;4899628;29;19919;-67
2022/08/06 06:57:31;;;;;;;;;;;;;;;-140.72;100.00;52429.41;4877073;29;20014;-68
2022/08/06 07:00:00;;;;;;;;;;;;;;;-140.72;100.00;52388.84;4895595;29;20022;-70
2022/08/06 07:02:28;;;;;;;;;;;;;;;-140.72;100.00;52388.84;4889961;29;19928;-68
2022/08/06 07:04:54;;;;;;;;;;;;;;;-140.72;100.00;52382.75;4887308;29;20391;-68
2022/08/06 07:07:20;;;;;;;;;;;;;;;-140.72;100.00;52396.94;4907997;29;19927;-68
2022/08/06 07:09:47;;;;;;;;;;;;;;;-140.72;100.00;52342.16;4904604;29;19914;-67
2022/08/06 07:12:14;;;;;;;;;;;;;;;-140.72;100.00;52384.78;4896775;29;19963;-74
2022/08/06 07:14:40;;;;;;;;;;;;;;;-140.72;100.00;52358.41;4891427;29;20010;-70
2022/08/06 07:17:06;;;;;;;;;;;;;;;-140.72;100.00;52366.50;4909266;29;19923;-70
2022/08/06 07:19:32;;;;;;;;;;;;;;;-140.72;100.00;52398.97;4899568;29;20275;-69
2022/08/06 07:21:58;;;;;;;;;;;;;;;-140.72;100.00;52398.97;4904455;29;19931;-69
2022/08/06 07:24:24;;;;;;;;;;;;;;;-140.72;100.00;52378.69;4911165;29;19931;-69
2022/08/06 07:26:50;;;;;;;;;;;;;;;-140.72;100.00;52352.31;4917147;29;20335;-67
2022/08/06 07:29:16;;;;;;;;;;;;;;;-140.72;100.00;52350.28;4909871;29;19958;-72
2022/08/06 07:31:41;;;;;;;;;;;;;;;-140.72;100.00;52374.63;4870844;29;19930;-69
2022/08/06 07:34:07;;;;;;;;;;;;;;;-140.72;100.00;52336.06;4897257;29;19931;-66
2022/08/06 07:36:35;;;;;;;;;;;;;;;-140.72;100.00;52309.69;4896388;29;20008;-67
2022/08/06 07:39:09;;;;;;;;;;;;;;;-140.72;100.00;52346.22;4887268;29;19924;-66
2022/08/06 07:41:36;;;;;;;;;;;;;;;-140.72;94.18;52348.25;4891400;29;19924;-69
2022/08/06 07:44:02;;;;;;;;;;;;;;;-140.72;84.85;52358.41;4898613;29;20003;-67
2022/08/06 07:46:31;;;;;;;;;;;;;;;-140.72;81.73;52350.28;4888069;29;19946;-67
2022/08/06 07:48:59;;;;;;;;;;;;;;;-140.72;72.21;52370.56;4899610;29;20002;-69
2022/08/06 07:51:26;;;;;;;;;;;;;;;-140.72;75.37;52360.44;4899184;29;20403;-69
2022/08/06 07:53:52;;;;;;;;;;;;;;;-140.72;81.23;52317.81;4897593;29;19958;-66
2022/08/06 07:56:18;;;;;;;;;;;;;;;-140.72;84.17;52346.22;4882658;29;19959;-68
2022/08/06 07:58:44;;;;;;;;;;;;;;;-140.72;71.83;52334.03;4904702;29;19924;-69
2022/08/06 08:01:10;;;;;;;;;;;;;;;-140.72;60.93;52334.03;4888912;29;19942;-69
2022/08/06 08:06:22;;;;;;;;;;;;;;;-140.72;38.50;52277.22;4889350;29;20431;-67
2022/08/06 08:09:05;;;;;;;;;;;;;;;-140.72;30.72;52301.59;4895464;29;20384;-65
2022/08/06 08:11:32;;;;;;;;;;;;;;;-140.72;18.74;52309.69;4894611;29;19931;-65
2022/08/06 08:14:02;;;;;;;;;;;;;;;-140.72;9.91;52271.16;4888286;29;19919;-65
2022/08/06 08:16:27;;;;;;;;;;;;;;;-140.72;0.00;52283.31;4881442;29;19919;-66
2022/08/06 08:18:53;;;;;;;;;;;;;;;-140.72;0.00;52263.03;4888811;29;19919;-67
2022/08/06 08:21:19;;;;;;;;;;;;;;;-140.72;0.00;52293.47;4888103;29;20298;-72
2022/08/06 08:23:46;;;;;;;;;;;;;;;-140.72;0.00;52313.75;4904010;29;20336;-68
2022/08/06 08:26:11;;;;;;;;;;;;;;;-140.72;0.00;52252.88;4898111;29;19934;-68
2022/08/06 08:28:36;;;;;;;;;;;;;;;-140.72;0.00;52303.59;4901915;29;19919;-72
2022/08/06 08:31:03;;;;;;;;;;;;;;;-140.72;0.00;52309.69;4907049;29;19924;-73
2022/08/06 08:33:29;;;;;;;;;;;;;;;-140.72;0.00;52287.38;4909621;29;19931;-75
2022/08/06 08:35:54;;;;;;;;;;;;;;;-140.72;0.00;52342.16;4900523;29;19923;-77
2022/08/06 08:38:19;;;;;;;;;;;;;;;-140.72;0.00;52309.69;4901145;29;19927;-70
2022/08/06 08:40:46;;;;;;;;;;;;;;;-140.72;0.00;52269.13;4900656;29;19935;-71
2022/08/06 08:43:14;;;;;;;;;;;;;;;-140.72;0.00;52232.59;4903925;29;19999;-72
2022/08/06 08:45:42;;;;;;;;;;;;;;;-140.72;0.00;52252.88;4888105;29;19948;-74
2022/08/06 08:48:10;;;;;;;;;;;;;;;-140.72;0.00;52236.66;4901985;29;19923;-73
2022/08/06 08:50:36;;;;;;;;;;;;;;;-140.72;0.00;52240.72;4887374;29;20007;-72
2022/08/06 08:53:06;;;;;;;;;;;;;;;-140.72;0.00;52246.78;4893424;29;19986;-68
2022/08/06 08:55:31;;;;;;;;;;;;;;;-140.72;0.00;52216.34;4912374;29;19932;-72
2022/08/06 08:57:57;;;;;;;;;;;;;;;-140.72;0.00;52208.25;4891541;29;19942;-69
2022/08/06 09:00:23;;;;;;;;;;;;;;;-140.72;0.00;52261.00;4889266;29;19950;-69
2022/08/06 09:02:48;;;;;;;;;;;;;;;-140.72;0.00;52238.69;4897292;29;19948;-70
2022/08/06 09:05:14;;;;;;;;;;;;;;;-140.72;0.00;52287.38;4906051;29;19919;-70
2022/08/06 09:07:40;;;;;;;;;;;;;;;-140.72;0.00;52277.22;4910702;29;19949;-69
2022/08/06 09:10:06;;;;;;;;;;;;;;;-140.72;0.00;52242.75;4888953;29;19920;-69
2022/08/06 09:12:32;;;;;;;;;;;;;;;-140.72;0.00;52232.59;4906613;29;19971;-71
2022/08/06 09:14:57;;;;;;;;;;;;;;;-140.72;0.00;52246.78;4901167;29;19919;-68
2022/08/06 09:17:25;;;;;;;;;;;;;;;-140.72;0.00;52299.56;4906209;29;19938;-69
2022/08/06 09:19:50;;;;;;;;;;;;;;;-140.72;0.00;52281.28;4924469;29;19911;-70
2022/08/06 09:22:15;;;;;;;;;;;;;;;-140.72;0.00;52267.09;4921015;29;19939;-71
2022/08/06 09:24:40;;;;;;;;;;;;;;;-140.72;0.00;52240.72;4896115;29;20408;-72
2022/08/06 09:27:07;;;;;;;;;;;;;;;-140.72;0.00;52202.16;4907532;29;19919;-70
2022/08/06 09:29:33;;;;;;;;;;;;;;;-140.72;0.00;52131.16;4902236;29;19967;-70
2022/08/06 09:31:59;;;;;;;;;;;;;;;-140.72;0.00;52074.34;4899481;29;19920;-71
2022/08/06 09:34:36;;;;;;;;;;;;;;;-140.72;0.00;52086.50;4902630;29;19959;-69
2022/08/06 09:37:02;;;;;;;;;;;;;;;-140.72;0.00;52013.47;4898011;29;19926;-71
2022/08/06 09:39:33;;;;;;;;;;;;;;;-140.72;0.00;52007.38;4891556;29;20354;-69
2022/08/06 09:41:58;;;;;;;;;;;;;;;-140.72;0.00;52009.41;4899547;29;19931;-70
2022/08/06 09:44:23;;;;;;;;;;;;;;;-140.72;0.00;51985.06;4905891;29;19920;-71
2022/08/06 09:46:52;;;;;;;;;;;;;;;-140.72;0.00;51950.56;4907541;29;19987;-71
2022/08/06 09:49:18;;;;;;;;;;;;;;;-140.72;0.00;51940.41;4891125;29;20340;-69
2022/08/06 09:51:43;;;;;;;;;;;;;;;-140.72;0.00;51964.78;4898400;29;19984;-70
2022/08/06 09:54:15;;;;;;;;;;;;;;;-140.72;0.00;51918.09;4901614;29;19920;-74
2022/08/06 09:56:41;;;;;;;;;;;;;;;-140.72;0.00;51883.63;4901054;29;19977;-71
2022/08/06 09:59:07;;;;;;;;;;;;;;;-140.72;0.00;51960.72;4913727;29;19963;-71
2022/08/06 10:01:43;;;;;;;;;;;;;;;-140.72;0.00;52049.97;4910622;29;19930;-70
2022/08/06 10:04:12;;;;;;;;;;;;;;;-140.72;0.00;52096.66;4911788;29;19930;-71
2022/08/06 10:06:50;;;;;;;;;;;;;;;-140.72;0.00;51993.19;4907350;29;19975;-71
2022/08/06 10:09:15;;;;;;;;;;;;;;;-140.72;0.00;51944.47;4898357;29;19923;-70
2022/08/06 10:11:41;;;;;;;;;;;;;;;-140.72;0.00;51899.84;4903415;29;20398;-69
2022/08/06 10:14:26;;;;;;;;;;;;;;;-140.72;0.00;52066.22;4903201;29;19929;-75
2022/08/06 10:17:11;;;;;;;;;;;;;;;-140.72;0.00;51987.09;4889709;29;19919;-69
2022/08/06 10:19:38;;;;;;;;;;;;;;;-140.72;0.00;51954.63;4893924;29;19919;-70
2022/08/06 10:22:07;;;;;;;;;;;;;;;-140.72;0.00;51867.38;4899228;29;19923;-70
2022/08/06 10:24:44;;;;;;;;;;;;;;;-140.72;0.00;51832.91;4892076;29;19919;-71
2022/08/06 10:27:10;;;;;;;;;;;;;;;-140.72;0.00;51952.59;4893808;29;19924;-74
2022/08/06 10:29:39;;;;;;;;;;;;;;;-140.72;0.00;51995.19;4868165;29;19924;-70
2022/08/06 10:32:05;;;;;;;;;;;;;;;-140.72;0.00;51983.03;4888802;29;20014;-70
2022/08/06 10:34:31;;;;;;;;;;;;;;;-140.72;0.00;52060.13;4909317;29;19934;-71
2022/08/06 10:36:58;;;;;;;;;;;;;;;-140.72;0.00;51958.69;4909524;29;20276;-70
2022/08/06 10:39:27;;;;;;;;;;;;;;;-140.72;0.00;51847.09;4910575;29;19927;-70
2022/08/06 10:41:54;;;;;;;;;;;;;;;-140.72;0.00;51812.59;4897528;29;19919;-73
2022/08/06 10:44:19;;;;;;;;;;;;;;;-140.72;0.00;51796.38;4900582;29;19927;-71
2022/08/06 10:46:44;;;;;;;;;;;;;;;-140.72;0.00;51757.81;4905804;29;19923;-72
2022/08/06 10:49:10;;;;;;;;;;;;;;;-140.72;0.00;51753.78;4917434;29;19919;-71
2022/08/06 10:51:36;;;;;;;;;;;;;;;-140.72;0.00;51782.16;4920845;29;19932;-71
2022/08/06 10:54:01;;;;;;;;;;;;;;;-140.72;0.00;51806.53;4919828;29;19927;-69
2022/08/06 10:56:28;;;;;;;;;;;;;;;-140.72;0.00;51792.31;4921242;29;19999;-70
2022/08/06 10:58:53;;;;;;;;;;;;;;;-140.72;0.00;51920.13;4927168;29;19958;-70
2022/08/06 11:01:23;;;;;;;;;;;;;;;-140.72;0.00;51914.03;4917339;29;19908;-70
2022/08/06 11:04:01;;;;;;;;;;;;;;;-140.72;0.00;51796.38;4909584;29;19993;-68
2022/08/06 11:06:35;;;;;;;;;;;;;;;-140.72;0.00;51733.47;4895983;29;19927;-72
2022/08/06 11:09:19;;;;;;;;;;;;;;;-140.72;0.00;51759.84;4901798;29;20043;-70
2022/08/06 11:12:10;;;;;;;;;;;;;;;-140.72;0.00;51719.28;4914379;29;20006;-73
2022/08/06 11:14:37;;;;;;;;;;;;;;;-140.72;0.00;51690.88;4893710;29;20296;-67
2022/08/06 11:17:02;;;;;;;;;;;;;;;-140.72;0.00;51664.50;4884204;29;19952;-68
2022/08/06 11:19:41;;;;;;;;;;;;;;;-140.72;0.00;51822.75;4891371;29;19924;-68
2022/08/06 11:22:07;;;;;;;;;;;;;;;-140.72;0.00;51905.94;4891314;29;19930;-68
2022/08/06 11:24:33;;;;;;;;;;;;;;;-140.72;0.00;52001.28;4901277;29;19923;-67
2022/08/06 11:26:58;;;;;;;;;;;;;;;-140.72;0.00;52037.81;4903847;29;19926;-66
2022/08/06 11:29:23;;;;;;;;;;;;;;;-140.72;0.00;52082.44;4895981;29;19948;-68
2022/08/06 11:31:51;;;;;;;;;;;;;;;-140.72;0.00;51966.81;4905541;29;19966;-67
2022/08/06 11:34:20;;;;;;;;;;;;;;;-140.72;0.00;51885.66;4906838;29;19932;-66
2022/08/06 11:36:53;;;;;;;;;;;;;;;-140.72;0.00;51788.25;4892393;29;19931;-68
2022/08/06 11:39:21;;;;;;;;;;;;;;;-140.72;0.00;51715.22;4904602;29;19916;-67
2022/08/06 11:41:51;;;;;;;;;;;;;;;-140.72;0.00;51699.00;4908602;29;19949;-67
2022/08/06 11:44:18;;;;;;;;;;;;;;;-140.72;0.00;51652.34;4893643;29;20007;-67
2022/08/06 11:46:47;;;;;;;;;;;;;;;-140.72;0.00;51666.53;4904355;29;19927;-67
2022/08/06 11:49:18;;;;;;;;;;;;;;;-140.72;0.00;51688.84;4904706;29;19966;-66
2022/08/06 11:51:43;;;;;;;;;;;;;;;-140.72;0.00;51615.81;4900452;29;19923;-67
2022/08/06 11:54:22;;;;;;;;;;;;;;;-140.72;0.00;51625.97;4902780;29;20413;-67
2022/08/06 11:57:12;;;;;;;;;;;;;;;-140.72;0.00;51755.81;4891969;29;19920;-68
2022/08/06 11:59:43;;;;;;;;;;;;;;;-140.72;0.00;51887.66;4906803;29;20003;-67
2022/08/06 12:02:10;;;;;;;;;;;;;;;-140.72;0.00;51800.44;4901626;29;20002;-67
2022/08/06 12:04:35;;;;;;;;;;;;;;;-140.72;0.00;51715.22;4901135;29;19923;-67
2022/08/06 12:07:17;;;;;;;;;;;;;;;-140.72;0.00;51692.91;4881558;29;20258;-64
2022/08/06 12:09:43;;;;;;;;;;;;;;;-140.72;0.00;51632.03;4903728;29;20387;-67
2022/08/06 12:12:24;;;;;;;;;;;;;;;-140.72;0.00;51640.16;4899118;29;19919;-68
2022/08/06 12:14:50;;;;;;;;;;;;;;;-140.72;0.00;51623.94;4869234;29;19919;-78
2022/08/06 12:17:16;;;;;;;;;;;;;;;-140.72;0.00;51542.78;4893563;29;20340;-78
2022/08/06 12:19:45;;;;;;;;;;;;;;;-140.72;0.00;51552.94;4878922;29;19927;-78
2022/08/06 12:22:14;;;;;;;;;;;;;;;-140.72;0.00;51567.13;4896050;29;20239;-80
2022/08/06 12:24:43;;;;;;;;;;;;;;;-140.72;0.00;51530.59;4883151;29;19920;-68
2022/08/06 12:27:10;;;;;;;;;;;;;;;-140.72;0.00;51709.13;4905750;29;19927;-66
2022/08/06 12:29:36;;;;;;;;;;;;;;;-140.72;0.00;51774.06;4890334;29;19928;-69